createdAt,value
2023-04-15T00:01:00.392Z,4.70
2023-04-15T00:04:35.478Z,4.73
2023-04-15T00:08:16.534Z,4.74
2023-04-15T00:11:53.634Z,4.82
2023-04-15T00:18:58.126Z,5.01
2023-04-15T00:22:38.620Z,4.96
2023-04-15T00:26:08.717Z,4.97
2023-04-15T00:29:36.102Z,5.04
2023-04-15T00:44:15.438Z,5.11
2023-04-15T00:47:54.097Z,5.12
2023-04-15T00:51:32.585Z,5.09
2023-04-15T00:55:09.251Z,5.13
2023-04-15T00:58:53.220Z,5.16
2023-04-15T01:20:21.424Z,5.33
2023-04-15T01:27:32.495Z,5.40
2023-04-15T01:31:15.444Z,5.41
2023-04-15T01:34:51.265Z,5.43
2023-04-15T01:49:12.465Z,5.60
2023-04-15T02:03:59.878Z,5.65
2023-04-15T02:11:25.052Z,5.67
2023-04-15T02:22:18.986Z,5.74
2023-04-15T02:25:53.618Z,5.78
2023-04-15T02:29:35.235Z,5.88
2023-04-15T02:32:59.446Z,5.84
2023-04-15T02:36:34.885Z,5.82
2023-04-15T02:40:27.461Z,5.86
2023-04-15T02:44:05.113Z,5.89
2023-04-15T02:47:48.524Z,5.91
2023-04-15T02:51:26.117Z,5.89
2023-04-15T02:55:06.742Z,5.91
2023-04-15T02:58:39.411Z,5.96
2023-04-15T03:02:17.059Z,6.04
2023-04-15T03:05:58.310Z,6.01
2023-04-15T03:09:42.788Z,6.03
2023-04-15T03:13:21.728Z,5.99
2023-04-15T03:17:01.570Z,5.98
2023-04-15T03:20:21.318Z,5.99
2023-04-15T03:24:00.743Z,5.95
2023-04-15T03:27:39.713Z,5.97
2023-04-15T03:31:19.939Z,6.00
2023-04-15T03:34:45.071Z,6.02
2023-04-15T03:38:22.942Z,5.89
2023-04-15T03:42:00.430Z,5.84
2023-04-15T03:45:20.695Z,5.91
2023-04-15T03:49:00.968Z,5.90
2023-04-15T03:52:36.158Z,5.80
2023-04-15T03:55:56.773Z,5.79
2023-04-15T04:06:40.641Z,5.85
2023-04-15T04:10:26.623Z,5.77
2023-04-15T04:13:48.356Z,5.84
2023-04-15T04:28:26.629Z,5.92
2023-04-15T04:31:49.864Z,5.94
2023-04-15T04:35:16.541Z,5.95
2023-04-15T04:54:12.591Z,6.42
2023-04-15T05:01:17.987Z,6.79
2023-04-15T05:04:43.818Z,6.88
2023-04-15T05:08:25.099Z,7.01
2023-04-15T05:55:29.864Z,7.84
2023-04-15T05:59:21.979Z,7.86
2023-04-15T06:02:28.103Z,7.92
2023-04-15T06:05:52.738Z,7.93
2023-04-15T06:08:58.735Z,7.92
2023-04-15T06:12:42.704Z,7.97
2023-04-15T06:15:45.664Z,7.99
2023-04-15T06:19:12.699Z,7.66
2023-04-15T06:22:37.693Z,8.11
2023-04-15T06:25:44.891Z,8.30
2023-04-15T06:28:50.725Z,8.29
2023-04-15T06:31:58.964Z,8.95
2023-04-15T06:35:08.388Z,9.25
2023-04-15T06:38:56.651Z,9.82
2023-04-15T06:42:22.060Z,9.63
2023-04-15T06:45:49.110Z,9.27
2023-04-15T06:48:55.123Z,9.34
2023-04-15T06:52:27.868Z,8.96
2023-04-15T06:55:31.745Z,9.33
2023-04-15T06:59:18.182Z,9.40
2023-04-15T07:02:45.528Z,9.33
2023-04-15T07:06:09.918Z,9.59
2023-04-15T07:09:12.953Z,9.64
2023-04-15T07:12:25.647Z,9.90
2023-04-15T07:15:30.622Z,10.13
2023-04-15T07:19:16.603Z,10.07
2023-04-15T07:22:42.888Z,10.55
2023-04-15T07:26:32.805Z,11.03
2023-04-15T07:29:56.786Z,11.24
2023-04-15T07:33:21.815Z,11.40
2023-04-15T07:36:46.308Z,11.17
2023-04-15T07:40:17.867Z,10.94
2023-04-15T07:43:23.464Z,11.21
2023-04-15T07:46:29.911Z,11.23
2023-04-15T07:49:56.955Z,11.37
2023-04-15T07:53:35.783Z,10.82
2023-04-15T07:57:26.880Z,12.22
2023-04-15T08:00:35.184Z,12.64
2023-04-15T08:04:06.363Z,12.57
2023-04-15T08:07:11.658Z,13.16
2023-04-15T08:11:00.166Z,13.22
2023-04-15T08:14:05.998Z,13.44
2023-04-15T08:17:33.020Z,13.71
2023-04-15T08:21:01.366Z,13.69
2023-04-15T08:25:00.600Z,13.02
2023-04-15T08:28:07.789Z,12.56
2023-04-15T08:31:51.432Z,12.74
2023-04-15T08:39:46.861Z,13.16
2023-04-15T08:43:51.878Z,13.17
2023-04-15T08:51:11.202Z,13.52
2023-04-15T09:58:29.907Z,15.25
2023-04-15T10:24:31.564Z,11.76
2023-04-15T12:31:29.825Z,14.54
2023-04-15T12:39:48.043Z,13.84
2023-04-15T13:18:05.712Z,13.04
2023-04-15T13:58:06.464Z,13.00
2023-04-15T14:08:55.818Z,12.89
2023-04-15T14:12:25.559Z,12.95
2023-04-15T14:15:54.874Z,12.71
2023-04-15T14:19:24.089Z,12.70
2023-04-15T14:22:45.958Z,12.83
2023-04-15T14:26:20.705Z,12.64
2023-04-15T14:29:41.046Z,12.45
2023-04-15T14:33:13.172Z,12.32
2023-04-15T14:36:28.686Z,12.64
2023-04-15T14:39:50.064Z,12.44
2023-04-15T14:43:17.243Z,12.46
2023-04-15T14:46:47.539Z,12.44
2023-04-15T14:50:06.760Z,12.79
2023-04-15T14:53:24.753Z,12.81
2023-04-15T14:56:56.235Z,13.04
2023-04-15T15:00:15.989Z,13.02
2023-04-15T15:03:46.949Z,12.97
2023-04-15T15:07:17.935Z,12.76
2023-04-15T15:10:54.003Z,12.80
2023-04-15T15:14:29.574Z,12.67
2023-04-15T15:18:05.855Z,12.76
2023-04-15T15:21:24.940Z,12.46
2023-04-15T15:24:48.187Z,12.17
2023-04-15T15:28:28.643Z,12.11
2023-04-15T15:31:51.777Z,11.81
2023-04-15T15:35:23.561Z,11.83
2023-04-15T15:38:47.723Z,11.68
2023-04-15T15:42:25.241Z,11.59
2023-04-15T15:45:55.723Z,11.32
2023-04-15T15:49:15.262Z,11.62
2023-04-15T15:52:42.174Z,11.34
2023-04-15T15:56:20.585Z,11.30
2023-04-15T15:59:48.160Z,11.48
2023-04-15T16:03:17.206Z,11.33
2023-04-15T16:06:52.587Z,11.39
2023-04-15T16:10:29.311Z,11.19
2023-04-15T16:13:57.039Z,11.39
2023-04-15T16:17:15.159Z,11.22
2023-04-15T16:20:39.111Z,11.11
2023-04-15T16:24:11.373Z,10.93
2023-04-15T16:27:58.886Z,10.69
2023-04-15T16:31:07.639Z,10.52
2023-04-15T16:34:27.475Z,10.29
2023-04-15T16:38:04.146Z,10.15
2023-04-15T16:41:42.829Z,10.04
2023-04-15T16:45:07.647Z,9.89
2023-04-15T16:48:29.840Z,9.75
2023-04-15T16:51:57.842Z,9.60
2023-04-15T16:55:18.775Z,9.59
2023-04-15T16:58:35.731Z,9.50
2023-04-15T17:01:56.048Z,9.46
2023-04-15T17:05:24.372Z,9.41
2023-04-15T17:08:57.614Z,9.33
2023-04-15T17:12:17.068Z,9.23
2023-04-15T17:15:46.782Z,9.15
2023-04-15T17:19:21.165Z,9.11
2023-04-15T17:22:53.282Z,8.98
2023-04-15T17:26:18.969Z,8.92
2023-04-15T17:29:58.563Z,8.83
2023-04-15T17:33:56.099Z,8.76
2023-04-15T17:36:55.507Z,8.71
2023-04-15T17:40:14.956Z,8.67
2023-04-15T17:43:32.131Z,8.71
2023-04-15T17:47:02.270Z,8.70
2023-04-15T17:50:32.441Z,8.65
2023-04-15T17:53:49.792Z,8.55
2023-04-15T17:57:06.899Z,8.47
2023-04-15T18:00:31.077Z,8.36
2023-04-15T18:04:08.118Z,8.29
2023-04-15T18:07:41.844Z,8.21
2023-04-15T18:11:21.094Z,8.21
2023-04-15T18:14:59.827Z,8.16
2023-04-15T18:18:35.987Z,8.12
2023-04-15T18:22:00.886Z,8.06
2023-04-15T18:25:35.528Z,8.01
2023-04-15T18:29:05.260Z,7.98
2023-04-15T18:32:31.994Z,7.97
2023-04-15T19:13:36.981Z,7.20
2023-04-15T19:28:00.006Z,7.12
2023-04-15T19:35:17.419Z,7.12
2023-04-15T19:42:32.931Z,7.12
2023-04-15T20:04:35.836Z,7.21
2023-04-15T20:12:09.987Z,7.23
2023-04-15T20:15:16.583Z,7.26
2023-04-15T20:18:53.509Z,7.30
2023-04-15T20:22:27.338Z,7.32
2023-04-15T20:44:54.039Z,7.34
2023-04-15T20:48:24.502Z,7.38
2023-04-15T20:53:05.010Z,7.38
2023-04-15T21:00:28.128Z,7.28
2023-04-15T21:08:10.980Z,7.21
2023-04-15T21:15:40.305Z,7.14
2023-04-15T21:19:19.681Z,7.08
2023-04-15T21:22:53.854Z,7.06
2023-04-15T21:26:29.044Z,7.03
2023-04-15T21:40:59.890Z,7.03
2023-04-15T21:44:40.543Z,6.95
2023-04-15T21:48:22.676Z,6.92
2023-04-15T21:55:31.807Z,6.83
2023-04-15T22:02:48.423Z,6.76
2023-04-15T23:29:41.008Z,6.60
2023-04-15T23:47:56.530Z,6.45
2023-04-15T23:55:50.994Z,6.30
